sensor_id;sensor_type;location;lat;lon;timestamp;P1;durP1;ratioP1;P2;durP2;ratioP2
3427;SDS011;1727;42.624;23.406;2023-07-31T00:00:05;5.10;;;4.60;;
3427;SDS011;1727;42.624;23.406;2023-07-31T00:02:35;5.33;;;3.90;;
3427;SDS011;1727;42.624;23.406;2023-07-31T00:05:02;5.47;;;4.40;;
3427;SDS011;1727;42.624;23.406;2023-07-31T00:07:29;4.77;;;4.30;;
3427;SDS011;1727;42.624;23.406;2023-07-31T00:09:58;5.30;;;4.83;;
3427;SDS011;1727;42.624;23.406;2023-07-31T00:12:25;6.30;;;5.77;;
3427;SDS011;1727;42.624;23.406;2023-07-31T00:14:51;6.27;;;5.67;;
3427;SDS011;1727;42.624;23.406;2023-07-31T00:17:20;5.60;;;4.90;;
3427;SDS011;1727;42.624;23.406;2023-07-31T00:19:49;5.73;;;5.23;;
3427;SDS011;1727;42.624;23.406;2023-07-31T00:22:18;6.27;;;5.67;;
3427;SDS011;1727;42.624;23.406;2023-07-31T00:24:45;6.40;;;5.17;;
3427;SDS011;1727;42.624;23.406;2023-07-31T00:27:12;5.20;;;4.70;;
3427;SDS011;1727;42.624;23.406;2023-07-31T00:29:41;5.50;;;4.80;;
3427;SDS011;1727;42.624;23.406;2023-07-31T00:32:08;5.77;;;5.17;;
3427;SDS011;1727;42.624;23.406;2023-07-31T00:34:35;6.13;;;5.53;;
3427;SDS011;1727;42.624;23.406;2023-07-31T00:37:03;5.70;;;5.20;;
3427;SDS011;1727;42.624;23.406;2023-07-31T00:39:31;4.93;;;4.63;;
3427;SDS011;1727;42.624;23.406;2023-07-31T00:41:58;7.63;;;5.90;;
3427;SDS011;1727;42.624;23.406;2023-07-31T00:44:24;5.90;;;5.40;;
3427;SDS011;1727;42.624;23.406;2023-07-31T00:46:54;6.73;;;6.13;;
3427;SDS011;1727;42.624;23.406;2023-07-31T00:49:23;5.30;;;4.80;;
3427;SDS011;1727;42.624;23.406;2023-07-31T00:51:50;8.80;;;6.23;;
3427;SDS011;1727;42.624;23.406;2023-07-31T00:54:18;9.90;;;5.50;;
3427;SDS011;1727;42.624;23.406;2023-07-31T00:56:46;6.70;;;5.07;;
3427;SDS011;1727;42.624;23.406;2023-07-31T00:59:13;5.80;;;5.17;;
3427;SDS011;1727;42.624;23.406;2023-07-31T01:01:40;5.33;;;4.73;;
3427;SDS011;1727;42.624;23.406;2023-07-31T01:04:07;5.40;;;4.97;;
3427;SDS011;1727;42.624;23.406;2023-07-31T01:06:35;5.20;;;4.80;;
3427;SDS011;1727;42.624;23.406;2023-07-31T01:09:08;7.10;;;5.87;;
3427;SDS011;1727;42.624;23.406;2023-07-31T01:11:46;7.70;;;7.00;;
3427;SDS011;1727;42.624;23.406;2023-07-31T01:14:15;6.73;;;6.13;;
3427;SDS011;1727;42.624;23.406;2023-07-31T01:16:42;7.20;;;6.50;;
3427;SDS011;1727;42.624;23.406;2023-07-31T01:19:09;6.13;;;5.60;;
3427;SDS011;1727;42.624;23.406;2023-07-31T01:21:41;6.50;;;6.00;;
3427;SDS011;1727;42.624;23.406;2023-07-31T01:24:28;6.87;;;6.07;;
3427;SDS011;1727;42.624;23.406;2023-07-31T01:27:04;6.87;;;6.20;;
3427;SDS011;1727;42.624;23.406;2023-07-31T01:29:45;5.50;;;5.10;;
3427;SDS011;1727;42.624;23.406;2023-07-31T01:32:16;6.33;;;5.47;;
3427;SDS011;1727;42.624;23.406;2023-07-31T01:34:44;5.63;;;5.13;;
3427;SDS011;1727;42.624;23.406;2023-07-31T01:37:12;5.77;;;5.27;;
3427;SDS011;1727;42.624;23.406;2023-07-31T01:39:39;7.43;;;5.73;;
3427;SDS011;1727;42.624;23.406;2023-07-31T01:42:07;9.20;;;6.00;;
3427;SDS011;1727;42.624;23.406;2023-07-31T01:44:34;6.43;;;5.83;;
3427;SDS011;1727;42.624;23.406;2023-07-31T01:47:01;7.30;;;6.60;;
3427;SDS011;1727;42.624;23.406;2023-07-31T01:49:30;10.97;;;10.07;;
3427;SDS011;1727;42.624;23.406;2023-07-31T01:51:57;12.47;;;11.37;;
3427;SDS011;1727;42.624;23.406;2023-07-31T01:54:24;12.67;;;11.57;;
3427;SDS011;1727;42.624;23.406;2023-07-31T01:56:51;16.57;;;14.87;;
3427;SDS011;1727;42.624;23.406;2023-07-31T01:59:19;22.23;;;19.10;;
3427;SDS011;1727;42.624;23.406;2023-07-31T02:01:46;22.13;;;19.83;;
3427;SDS011;1727;42.624;23.406;2023-07-31T02:04:12;23.53;;;21.10;;
3427;SDS011;1727;42.624;23.406;2023-07-31T02:06:43;25.17;;;22.43;;
3427;SDS011;1727;42.624;23.406;2023-07-31T02:09:10;25.33;;;22.33;;
3427;SDS011;1727;42.624;23.406;2023-07-31T02:11:37;27.13;;;24.23;;
3427;SDS011;1727;42.624;23.406;2023-07-31T02:14:03;26.47;;;23.37;;
3427;SDS011;1727;42.624;23.406;2023-07-31T02:16:31;27.17;;;24.10;;
3427;SDS011;1727;42.624;23.406;2023-07-31T02:18:58;28.07;;;25.07;;
3427;SDS011;1727;42.624;23.406;2023-07-31T02:21:25;25.53;;;22.80;;
3427;SDS011;1727;42.624;23.406;2023-07-31T02:23:52;27.10;;;24.30;;
3427;SDS011;1727;42.624;23.406;2023-07-31T02:26:21;27.30;;;23.93;;
3427;SDS011;1727;42.624;23.406;2023-07-31T02:28:50;29.27;;;23.60;;
3427;SDS011;1727;42.624;23.406;2023-07-31T02:31:16;29.03;;;25.93;;
3427;SDS011;1727;42.624;23.406;2023-07-31T02:33:45;29.37;;;25.07;;
3427;SDS011;1727;42.624;23.406;2023-07-31T02:36:11;27.80;;;23.37;;
3427;SDS011;1727;42.624;23.406;2023-07-31T02:38:39;27.20;;;24.20;;
3427;SDS011;1727;42.624;23.406;2023-07-31T02:41:06;29.53;;;25.30;;
3427;SDS011;1727;42.624;23.406;2023-07-31T02:43:33;27.47;;;24.47;;
3427;SDS011;1727;42.624;23.406;2023-07-31T02:46:00;27.23;;;23.70;;
3427;SDS011;1727;42.624;23.406;2023-07-31T02:48:26;25.47;;;22.33;;
3427;SDS011;1727;42.624;23.406;2023-07-31T02:50:54;26.23;;;23.53;;
3427;SDS011;1727;42.624;23.406;2023-07-31T02:53:21;28.97;;;25.33;;
3427;SDS011;1727;42.624;23.406;2023-07-31T02:55:51;27.70;;;24.93;;
3427;SDS011;1727;42.624;23.406;2023-07-31T02:58:18;28.07;;;25.00;;
3427;SDS011;1727;42.624;23.406;2023-07-31T03:00:45;27.20;;;23.20;;
3427;SDS011;1727;42.624;23.406;2023-07-31T03:03:11;24.73;;;21.57;;
3427;SDS011;1727;42.624;23.406;2023-07-31T03:05:38;26.83;;;23.50;;
3427;SDS011;1727;42.624;23.406;2023-07-31T03:08:06;26.90;;;24.10;;
3427;SDS011;1727;42.624;23.406;2023-07-31T03:10:33;26.47;;;23.57;;
3427;SDS011;1727;42.624;23.406;2023-07-31T03:13:00;26.33;;;23.40;;
3427;SDS011;1727;42.624;23.406;2023-07-31T03:15:27;25.93;;;23.20;;
3427;SDS011;1727;42.624;23.406;2023-07-31T03:17:53;24.67;;;22.07;;
3427;SDS011;1727;42.624;23.406;2023-07-31T03:20:20;28.93;;;23.87;;
3427;SDS011;1727;42.624;23.406;2023-07-31T03:22:47;26.23;;;23.37;;
3427;SDS011;1727;42.624;23.406;2023-07-31T03:25:15;26.57;;;23.77;;
3427;SDS011;1727;42.624;23.406;2023-07-31T03:27:46;27.10;;;24.20;;
3427;SDS011;1727;42.624;23.406;2023-07-31T03:30:13;24.93;;;22.03;;
3427;SDS011;1727;42.624;23.406;2023-07-31T03:32:40;28.37;;;23.13;;
3427;SDS011;1727;42.624;23.406;2023-07-31T03:35:07;26.23;;;23.47;;
3427;SDS011;1727;42.624;23.406;2023-07-31T03:37:34;25.50;;;22.67;;
3427;SDS011;1727;42.624;23.406;2023-07-31T03:40:00;30.30;;;24.07;;
3427;SDS011;1727;42.624;23.406;2023-07-31T03:42:29;29.90;;;25.63;;
3427;SDS011;1727;42.624;23.406;2023-07-31T03:44:55;28.17;;;23.77;;
3427;SDS011;1727;42.624;23.406;2023-07-31T03:47:22;27.77;;;24.80;;
3427;SDS011;1727;42.624;23.406;2023-07-31T03:49:49;26.60;;;23.00;;
3427;SDS011;1727;42.624;23.406;2023-07-31T03:52:16;29.70;;;24.60;;
3427;SDS011;1727;42.624;23.406;2023-07-31T03:54:42;28.67;;;25.50;;
3427;SDS011;1727;42.624;23.406;2023-07-31T03:57:10;22.67;;;20.27;;
3427;SDS011;1727;42.624;23.406;2023-07-31T03:59:38;26.37;;;23.57;;
3427;SDS011;1727;42.624;23.406;2023-07-31T04:02:05;26.80;;;24.00;;
3427;SDS011;1727;42.624;23.406;2023-07-31T04:04:32;29.13;;;26.13;;
3427;SDS011;1727;42.624;23.406;2023-07-31T04:06:58;27.43;;;24.37;;
3427;SDS011;1727;42.624;23.406;2023-07-31T04:09:25;27.40;;;23.60;;
3427;SDS011;1727;42.624;23.406;2023-07-31T04:11:52;28.33;;;24.07;;
3427;SDS011;1727;42.624;23.406;2023-07-31T04:14:19;30.20;;;24.97;;
3427;SDS011;1727;42.624;23.406;2023-07-31T04:16:47;34.83;;;25.30;;
3427;SDS011;1727;42.624;23.406;2023-07-31T04:19:14;29.63;;;24.87;;
3427;SDS011;1727;42.624;23.406;2023-07-31T04:21:41;32.00;;;24.90;;
3427;SDS011;1727;42.624;23.406;2023-07-31T04:24:08;27.63;;;23.80;;
3427;SDS011;1727;42.624;23.406;2023-07-31T04:26:35;31.63;;;24.77;;
3427;SDS011;1727;42.624;23.406;2023-07-31T04:29:02;29.60;;;24.03;;
3427;SDS011;1727;42.624;23.406;2023-07-31T04:31:29;30.23;;;24.13;;
3427;SDS011;1727;42.624;23.406;2023-07-31T04:33:57;29.47;;;23.00;;
3427;SDS011;1727;42.624;23.406;2023-07-31T04:36:26;29.80;;;24.47;;
3427;SDS011;1727;42.624;23.406;2023-07-31T04:38:53;27.63;;;22.77;;
3427;SDS011;1727;42.624;23.406;2023-07-31T04:41:20;28.30;;;24.40;;
3427;SDS011;1727;42.624;23.406;2023-07-31T04:43:47;29.67;;;23.90;;
3427;SDS011;1727;42.624;23.406;2023-07-31T04:46:14;27.67;;;23.00;;
3427;SDS011;1727;42.624;23.406;2023-07-31T04:48:42;28.07;;;24.07;;
3427;SDS011;1727;42.624;23.406;2023-07-31T04:51:10;25.30;;;21.80;;
3427;SDS011;1727;42.624;23.406;2023-07-31T04:53:37;27.47;;;22.00;;
3427;SDS011;1727;42.624;23.406;2023-07-31T04:56:04;26.57;;;23.73;;
3427;SDS011;1727;42.624;23.406;2023-07-31T04:58:30;25.33;;;21.07;;
3427;SDS011;1727;42.624;23.406;2023-07-31T05:00:57;24.67;;;21.60;;
3427;SDS011;1727;42.624;23.406;2023-07-31T05:03:24;23.57;;;21.07;;
3427;SDS011;1727;42.624;23.406;2023-07-31T05:05:51;21.87;;;19.50;;
3427;SDS011;1727;42.624;23.406;2023-07-31T05:08:22;25.40;;;21.57;;
3427;SDS011;1727;42.624;23.406;2023-07-31T05:10:49;22.40;;;19.50;;
3427;SDS011;1727;42.624;23.406;2023-07-31T05:13:16;27.03;;;19.00;;
3427;SDS011;1727;42.624;23.406;2023-07-31T05:15:43;25.37;;;21.53;;
3427;SDS011;1727;42.624;23.406;2023-07-31T05:18:10;22.97;;;20.30;;
3427;SDS011;1727;42.624;23.406;2023-07-31T05:20:38;18.57;;;16.67;;
3427;SDS011;1727;42.624;23.406;2023-07-31T05:23:06;22.60;;;19.43;;
3427;SDS011;1727;42.624;23.406;2023-07-31T05:25:34;21.83;;;19.53;;
3427;SDS011;1727;42.624;23.406;2023-07-31T05:28:01;24.40;;;20.10;;
3427;SDS011;1727;42.624;23.406;2023-07-31T05:30:29;23.17;;;19.53;;
3427;SDS011;1727;42.624;23.406;2023-07-31T05:32:56;22.30;;;19.80;;
3427;SDS011;1727;42.624;23.406;2023-07-31T05:35:23;22.67;;;20.27;;
3427;SDS011;1727;42.624;23.406;2023-07-31T05:37:50;21.43;;;18.60;;
3427;SDS011;1727;42.624;23.406;2023-07-31T05:40:19;23.57;;;21.10;;
3427;SDS011;1727;42.624;23.406;2023-07-31T05:42:47;22.10;;;18.90;;
3427;SDS011;1727;42.624;23.406;2023-07-31T05:45:14;21.87;;;18.23;;
3427;SDS011;1727;42.624;23.406;2023-07-31T05:47:41;20.43;;;16.73;;
3427;SDS011;1727;42.624;23.406;2023-07-31T05:50:08;21.00;;;15.63;;
3427;SDS011;1727;42.624;23.406;2023-07-31T05:52:35;19.70;;;17.70;;
3427;SDS011;1727;42.624;23.406;2023-07-31T05:55:02;18.43;;;15.90;;
3427;SDS011;1727;42.624;23.406;2023-07-31T05:57:29;17.40;;;15.60;;
3427;SDS011;1727;42.624;23.406;2023-07-31T05:59:57;15.73;;;13.40;;
3427;SDS011;1727;42.624;23.406;2023-07-31T06:02:24;16.83;;;15.23;;
3427;SDS011;1727;42.624;23.406;2023-07-31T06:04:50;13.13;;;11.67;;
3427;SDS011;1727;42.624;23.406;2023-07-31T06:07:17;18.80;;;14.07;;
3427;SDS011;1727;42.624;23.406;2023-07-31T06:09:44;11.90;;;10.70;;
3427;SDS011;1727;42.624;23.406;2023-07-31T06:12:11;11.60;;;10.50;;
3427;SDS011;1727;42.624;23.406;2023-07-31T06:14:38;12.83;;;11.57;;
3427;SDS011;1727;42.624;23.406;2023-07-31T06:17:06;10.40;;;9.40;;
3427;SDS011;1727;42.624;23.406;2023-07-31T06:19:33;8.90;;;8.10;;
3427;SDS011;1727;42.624;23.406;2023-07-31T06:22:00;11.27;;;9.13;;
3427;SDS011;1727;42.624;23.406;2023-07-31T06:24:28;10.10;;;9.20;;
3427;SDS011;1727;42.624;23.406;2023-07-31T06:26:55;13.07;;;8.70;;
3427;SDS011;1727;42.624;23.406;2023-07-31T06:29:22;13.60;;;9.83;;
3427;SDS011;1727;42.624;23.406;2023-07-31T06:31:49;9.50;;;8.60;;
3427;SDS011;1727;42.624;23.406;2023-07-31T06:34:17;8.73;;;7.93;;
3427;SDS011;1727;42.624;23.406;2023-07-31T06:36:44;8.33;;;7.63;;
3427;SDS011;1727;42.624;23.406;2023-07-31T06:39:11;7.87;;;7.10;;
3427;SDS011;1727;42.624;23.406;2023-07-31T06:41:38;8.40;;;7.20;;
3427;SDS011;1727;42.624;23.406;2023-07-31T06:44:05;8.07;;;5.53;;
3427;SDS011;1727;42.624;23.406;2023-07-31T06:46:32;6.03;;;5.30;;
3427;SDS011;1727;42.624;23.406;2023-07-31T06:48:59;12.20;;;5.90;;
3427;SDS011;1727;42.624;23.406;2023-07-31T06:51:27;6.37;;;5.77;;
3427;SDS011;1727;42.624;23.406;2023-07-31T06:53:53;10.30;;;6.67;;
3427;SDS011;1727;42.624;23.406;2023-07-31T06:56:20;7.40;;;6.70;;
3427;SDS011;1727;42.624;23.406;2023-07-31T06:58:47;7.03;;;6.50;;
3427;SDS011;1727;42.624;23.406;2023-07-31T07:01:14;6.20;;;5.60;;
3427;SDS011;1727;42.624;23.406;2023-07-31T07:03:41;6.80;;;6.30;;
3427;SDS011;1727;42.624;23.406;2023-07-31T07:06:08;7.20;;;6.57;;
3427;SDS011;1727;42.624;23.406;2023-07-31T07:08:36;5.67;;;5.20;;
3427;SDS011;1727;42.624;23.406;2023-07-31T07:11:03;6.20;;;5.60;;
3427;SDS011;1727;42.624;23.406;2023-07-31T07:13:30;6.30;;;5.70;;
3427;SDS011;1727;42.624;23.406;2023-07-31T07:15:56;6.40;;;5.80;;
3427;SDS011;1727;42.624;23.406;2023-07-31T07:18:23;5.97;;;5.47;;
3427;SDS011;1727;42.624;23.406;2023-07-31T07:20:50;6.40;;;5.80;;
3427;SDS011;1727;42.624;23.406;2023-07-31T07:23:18;6.10;;;5.53;;
3427;SDS011;1727;42.624;23.406;2023-07-31T07:25:47;5.50;;;5.00;;
3427;SDS011;1727;42.624;23.406;2023-07-31T07:28:14;4.67;;;4.27;;
3427;SDS011;1727;42.624;23.406;2023-07-31T07:30:40;4.83;;;4.37;;
3427;SDS011;1727;42.624;23.406;2023-07-31T07:33:07;6.20;;;5.10;;
3427;SDS011;1727;42.624;23.406;2023-07-31T07:35:34;6.03;;;5.43;;
3427;SDS011;1727;42.624;23.406;2023-07-31T07:38:01;4.13;;;3.77;;
3427;SDS011;1727;42.624;23.406;2023-07-31T07:40:28;5.73;;;4.37;;
3427;SDS011;1727;42.624;23.406;2023-07-31T07:42:56;4.63;;;4.23;;
3427;SDS011;1727;42.624;23.406;2023-07-31T07:45:25;4.63;;;4.23;;
3427;SDS011;1727;42.624;23.406;2023-07-31T07:47:52;4.50;;;4.10;;
3427;SDS011;1727;42.624;23.406;2023-07-31T07:50:18;5.77;;;4.77;;
3427;SDS011;1727;42.624;23.406;2023-07-31T07:52:45;5.00;;;4.50;;
3427;SDS011;1727;42.624;23.406;2023-07-31T07:55:12;5.20;;;4.70;;
3427;SDS011;1727;42.624;23.406;2023-07-31T07:57:39;5.33;;;4.83;;
3427;SDS011;1727;42.624;23.406;2023-07-31T08:00:07;5.87;;;5.27;;
3427;SDS011;1727;42.624;23.406;2023-07-31T08:02:35;5.43;;;4.57;;
3427;SDS011;1727;42.624;23.406;2023-07-31T08:05:02;4.97;;;4.57;;
3427;SDS011;1727;42.624;23.406;2023-07-31T08:07:29;4.63;;;4.10;;
3427;SDS011;1727;42.624;23.406;2023-07-31T08:09:56;4.20;;;3.90;;
3427;SDS011;1727;42.624;23.406;2023-07-31T08:12:23;4.67;;;4.27;;
3427;SDS011;1727;42.624;23.406;2023-07-31T08:14:49;4.70;;;4.00;;
3427;SDS011;1727;42.624;23.406;2023-07-31T08:17:18;4.30;;;4.00;;
3427;SDS011;1727;42.624;23.406;2023-07-31T08:19:45;4.00;;;3.70;;
3427;SDS011;1727;42.624;23.406;2023-07-31T08:22:12;4.07;;;3.77;;
3427;SDS011;1727;42.624;23.406;2023-07-31T08:24:39;4.13;;;3.73;;
3427;SDS011;1727;42.624;23.406;2023-07-31T08:27:06;4.53;;;4.13;;
3427;SDS011;1727;42.624;23.406;2023-07-31T08:29:36;5.30;;;4.80;;
3427;SDS011;1727;42.624;23.406;2023-07-31T08:32:03;3.73;;;3.43;;
3427;SDS011;1727;42.624;23.406;2023-07-31T08:34:32;3.90;;;3.57;;
3427;SDS011;1727;42.624;23.406;2023-07-31T08:36:58;7.37;;;4.60;;
3427;SDS011;1727;42.624;23.406;2023-07-31T08:39:25;4.13;;;3.83;;
3427;SDS011;1727;42.624;23.406;2023-07-31T08:41:57;4.93;;;4.40;;
3427;SDS011;1727;42.624;23.406;2023-07-31T08:44:24;4.90;;;4.50;;
3427;SDS011;1727;42.624;23.406;2023-07-31T08:46:51;3.63;;;3.33;;
3427;SDS011;1727;42.624;23.406;2023-07-31T08:49:19;5.07;;;4.20;;
3427;SDS011;1727;42.624;23.406;2023-07-31T08:51:49;6.03;;;3.87;;
3427;SDS011;1727;42.624;23.406;2023-07-31T08:54:18;3.87;;;3.57;;
3427;SDS011;1727;42.624;23.406;2023-07-31T08:56:46;3.63;;;3.33;;
3427;SDS011;1727;42.624;23.406;2023-07-31T08:59:13;4.57;;;4.13;;
3427;SDS011;1727;42.624;23.406;2023-07-31T09:01:43;5.07;;;4.23;;
3427;SDS011;1727;42.624;23.406;2023-07-31T09:04:14;5.43;;;3.77;;
3427;SDS011;1727;42.624;23.406;2023-07-31T09:06:45;5.00;;;4.50;;
3427;SDS011;1727;42.624;23.406;2023-07-31T09:09:15;5.00;;;4.50;;
3427;SDS011;1727;42.624;23.406;2023-07-31T09:11:42;8.07;;;4.40;;
3427;SDS011;1727;42.624;23.406;2023-07-31T09:14:09;4.07;;;3.77;;
3427;SDS011;1727;42.624;23.406;2023-07-31T09:16:43;6.63;;;3.90;;
3427;SDS011;1727;42.624;23.406;2023-07-31T09:19:24;4.40;;;4.00;;
3427;SDS011;1727;42.624;23.406;2023-07-31T09:21:51;4.50;;;3.63;;
3427;SDS011;1727;42.624;23.406;2023-07-31T09:24:25;5.17;;;3.60;;
3427;SDS011;1727;42.624;23.406;2023-07-31T09:26:53;5.27;;;4.57;;
3427;SDS011;1727;42.624;23.406;2023-07-31T09:29:21;4.03;;;3.67;;
3427;SDS011;1727;42.624;23.406;2023-07-31T09:31:49;3.70;;;3.40;;
3427;SDS011;1727;42.624;23.406;2023-07-31T09:34:17;4.27;;;3.87;;
3427;SDS011;1727;42.624;23.406;2023-07-31T09:36:44;4.37;;;3.93;;
3427;SDS011;1727;42.624;23.406;2023-07-31T09:39:12;5.13;;;4.00;;
3427;SDS011;1727;42.624;23.406;2023-07-31T09:41:42;4.30;;;3.90;;
3427;SDS011;1727;42.624;23.406;2023-07-31T09:44:11;3.87;;;3.57;;
3427;SDS011;1727;42.624;23.406;2023-07-31T09:46:38;4.20;;;3.80;;
3427;SDS011;1727;42.624;23.406;2023-07-31T09:49:06;4.50;;;4.13;;
3427;SDS011;1727;42.624;23.406;2023-07-31T09:51:34;4.57;;;4.10;;
3427;SDS011;1727;42.624;23.406;2023-07-31T09:54:13;4.67;;;4.27;;
3427;SDS011;1727;42.624;23.406;2023-07-31T09:56:42;3.97;;;3.67;;
3427;SDS011;1727;42.624;23.406;2023-07-31T09:59:11;5.80;;;4.67;;
3427;SDS011;1727;42.624;23.406;2023-07-31T10:01:39;4.27;;;3.87;;
3427;SDS011;1727;42.624;23.406;2023-07-31T10:04:07;4.70;;;3.97;;
3427;SDS011;1727;42.624;23.406;2023-07-31T10:06:35;4.80;;;4.30;;
3427;SDS011;1727;42.624;23.406;2023-07-31T10:09:03;5.20;;;4.30;;
3427;SDS011;1727;42.624;23.406;2023-07-31T10:11:33;4.97;;;3.90;;
3427;SDS011;1727;42.624;23.406;2023-07-31T10:14:06;3.70;;;3.40;;
3427;SDS011;1727;42.624;23.406;2023-07-31T10:16:34;4.90;;;4.30;;
3427;SDS011;1727;42.624;23.406;2023-07-31T10:19:02;5.07;;;4.57;;
3427;SDS011;1727;42.624;23.406;2023-07-31T10:21:29;3.87;;;3.60;;
3427;SDS011;1727;42.624;23.406;2023-07-31T10:24:00;3.80;;;3.50;;
3427;SDS011;1727;42.624;23.406;2023-07-31T10:26:29;3.73;;;3.40;;
3427;SDS011;1727;42.624;23.406;2023-07-31T10:28:57;4.17;;;3.50;;
3427;SDS011;1727;42.624;23.406;2023-07-31T10:31:26;4.40;;;4.00;;
3427;SDS011;1727;42.624;23.406;2023-07-31T10:33:54;3.97;;;3.67;;
3427;SDS011;1727;42.624;23.406;2023-07-31T10:36:23;4.57;;;4.17;;
3427;SDS011;1727;42.624;23.406;2023-07-31T10:38:50;4.30;;;3.70;;
3427;SDS011;1727;42.624;23.406;2023-07-31T10:41:17;5.20;;;3.93;;
3427;SDS011;1727;42.624;23.406;2023-07-31T10:43:45;4.53;;;3.33;;
3427;SDS011;1727;42.624;23.406;2023-07-31T10:46:12;3.90;;;3.23;;
3427;SDS011;1727;42.624;23.406;2023-07-31T10:48:41;3.40;;;3.20;;
3427;SDS011;1727;42.624;23.406;2023-07-31T10:51:08;3.00;;;2.70;;
3427;SDS011;1727;42.624;23.406;2023-07-31T10:53:37;3.77;;;3.47;;
3427;SDS011;1727;42.624;23.406;2023-07-31T10:56:05;3.57;;;3.20;;
3427;SDS011;1727;42.624;23.406;2023-07-31T10:58:33;3.90;;;3.07;;
3427;SDS011;1727;42.624;23.406;2023-07-31T11:01:01;5.93;;;3.20;;
3427;SDS011;1727;42.624;23.406;2023-07-31T11:03:44;6.13;;;3.70;;
3427;SDS011;1727;42.624;23.406;2023-07-31T11:06:12;3.13;;;2.93;;
3427;SDS011;1727;42.624;23.406;2023-07-31T11:08:43;3.23;;;3.03;;
3427;SDS011;1727;42.624;23.406;2023-07-31T11:11:11;3.70;;;3.40;;
3427;SDS011;1727;42.624;23.406;2023-07-31T11:13:40;3.57;;;3.27;;
3427;SDS011;1727;42.624;23.406;2023-07-31T11:16:08;3.43;;;3.13;;
3427;SDS011;1727;42.624;23.406;2023-07-31T11:18:37;5.97;;;3.33;;
3427;SDS011;1727;42.624;23.406;2023-07-31T11:21:07;4.03;;;3.00;;
3427;SDS011;1727;42.624;23.406;2023-07-31T11:23:36;4.20;;;3.70;;
3427;SDS011;1727;42.624;23.406;2023-07-31T11:26:04;4.90;;;3.07;;
3427;SDS011;1727;42.624;23.406;2023-07-31T11:28:32;4.23;;;2.83;;
3427;SDS011;1727;42.624;23.406;2023-07-31T11:31:00;3.10;;;2.90;;
3427;SDS011;1727;42.624;23.406;2023-07-31T11:33:27;3.27;;;3.07;;
3427;SDS011;1727;42.624;23.406;2023-07-31T11:35:57;3.10;;;2.90;;
3427;SDS011;1727;42.624;23.406;2023-07-31T11:38:25;2.57;;;2.37;;
3427;SDS011;1727;42.624;23.406;2023-07-31T11:40:53;2.90;;;2.70;;
3427;SDS011;1727;42.624;23.406;2023-07-31T11:43:21;3.40;;;3.10;;
3427;SDS011;1727;42.624;23.406;2023-07-31T11:45:49;9.80;;;3.87;;
3427;SDS011;1727;42.624;23.406;2023-07-31T11:48:19;4.40;;;3.50;;
3427;SDS011;1727;42.624;23.406;2023-07-31T11:50:47;2.73;;;2.53;;
3427;SDS011;1727;42.624;23.406;2023-07-31T11:53:16;3.10;;;2.90;;
3427;SDS011;1727;42.624;23.406;2023-07-31T11:55:46;6.33;;;3.13;;
3427;SDS011;1727;42.624;23.406;2023-07-31T11:58:14;3.20;;;3.00;;
3427;SDS011;1727;42.624;23.406;2023-07-31T12:00:42;3.80;;;3.00;;
3427;SDS011;1727;42.624;23.406;2023-07-31T12:03:09;3.57;;;3.33;;
3427;SDS011;1727;42.624;23.406;2023-07-31T12:05:36;3.60;;;3.30;;
3427;SDS011;1727;42.624;23.406;2023-07-31T12:08:08;7.93;;;3.80;;
3427;SDS011;1727;42.624;23.406;2023-07-31T12:10:36;4.00;;;3.60;;
3427;SDS011;1727;42.624;23.406;2023-07-31T12:13:07;4.50;;;4.20;;
3427;SDS011;1727;42.624;23.406;2023-07-31T12:15:39;4.10;;;3.70;;
3427;SDS011;1727;42.624;23.406;2023-07-31T12:18:07;4.00;;;3.60;;
3427;SDS011;1727;42.624;23.406;2023-07-31T12:20:39;7.03;;;3.70;;
3427;SDS011;1727;42.624;23.406;2023-07-31T12:23:13;4.10;;;3.80;;
3427;SDS011;1727;42.624;23.406;2023-07-31T12:25:41;4.37;;;3.47;;
3427;SDS011;1727;42.624;23.406;2023-07-31T12:28:09;4.57;;;4.27;;
3427;SDS011;1727;42.624;23.406;2023-07-31T12:30:38;3.70;;;3.40;;
3427;SDS011;1727;42.624;23.406;2023-07-31T12:33:12;4.43;;;4.03;;
3427;SDS011;1727;42.624;23.406;2023-07-31T12:35:43;3.70;;;3.40;;
3427;SDS011;1727;42.624;23.406;2023-07-31T12:38:11;4.87;;;4.47;;
3427;SDS011;1727;42.624;23.406;2023-07-31T12:40:39;5.00;;;4.57;;
3427;SDS011;1727;42.624;23.406;2023-07-31T12:43:06;4.23;;;3.83;;
3427;SDS011;1727;42.624;23.406;2023-07-31T12:45:35;5.03;;;4.63;;
3427;SDS011;1727;42.624;23.406;2023-07-31T12:48:02;6.27;;;5.67;;
3427;SDS011;1727;42.624;23.406;2023-07-31T12:50:29;6.97;;;6.37;;
3427;SDS011;1727;42.624;23.406;2023-07-31T12:52:56;7.13;;;6.53;;
3427;SDS011;1727;42.624;23.406;2023-07-31T12:55:23;7.07;;;6.47;;
3427;SDS011;1727;42.624;23.406;2023-07-31T12:57:50;8.80;;;5.53;;
3427;SDS011;1727;42.624;23.406;2023-07-31T13:00:17;6.00;;;5.40;;
3427;SDS011;1727;42.624;23.406;2023-07-31T13:02:45;5.90;;;5.33;;
3427;SDS011;1727;42.624;23.406;2023-07-31T13:05:12;7.27;;;5.77;;
3427;SDS011;1727;42.624;23.406;2023-07-31T13:07:39;6.13;;;5.63;;
3427;SDS011;1727;42.624;23.406;2023-07-31T13:10:07;6.90;;;5.03;;
3427;SDS011;1727;42.624;23.406;2023-07-31T13:12:34;5.90;;;5.37;;
3427;SDS011;1727;42.624;23.406;2023-07-31T13:15:01;6.87;;;6.27;;
3427;SDS011;1727;42.624;23.406;2023-07-31T13:17:28;6.73;;;6.23;;
3427;SDS011;1727;42.624;23.406;2023-07-31T13:19:56;7.37;;;6.77;;
3427;SDS011;1727;42.624;23.406;2023-07-31T13:22:23;7.33;;;6.47;;
3427;SDS011;1727;42.624;23.406;2023-07-31T13:24:50;8.43;;;6.30;;
3427;SDS011;1727;42.624;23.406;2023-07-31T13:27:17;8.43;;;6.97;;
3427;SDS011;1727;42.624;23.406;2023-07-31T13:29:46;7.53;;;6.83;;
3427;SDS011;1727;42.624;23.406;2023-07-31T13:32:14;7.97;;;7.07;;
3427;SDS011;1727;42.624;23.406;2023-07-31T13:34:41;7.20;;;6.60;;
3427;SDS011;1727;42.624;23.406;2023-07-31T13:37:10;6.80;;;6.30;;
3427;SDS011;1727;42.624;23.406;2023-07-31T13:39:37;10.20;;;7.10;;
3427;SDS011;1727;42.624;23.406;2023-07-31T13:42:04;7.27;;;5.90;;
3427;SDS011;1727;42.624;23.406;2023-07-31T13:44:33;7.33;;;6.63;;
3427;SDS011;1727;42.624;23.406;2023-07-31T13:47:00;6.50;;;5.80;;
3427;SDS011;1727;42.624;23.406;2023-07-31T13:49:26;5.50;;;5.00;;
3427;SDS011;1727;42.624;23.406;2023-07-31T13:51:54;7.43;;;5.87;;
3427;SDS011;1727;42.624;23.406;2023-07-31T13:54:22;7.47;;;6.47;;
3427;SDS011;1727;42.624;23.406;2023-07-31T13:56:49;6.73;;;5.57;;
3427;SDS011;1727;42.624;23.406;2023-07-31T13:59:16;6.47;;;5.90;;
3427;SDS011;1727;42.624;23.406;2023-07-31T14:01:43;7.03;;;6.37;;
3427;SDS011;1727;42.624;23.406;2023-07-31T14:04:10;6.07;;;5.60;;
3427;SDS011;1727;42.624;23.406;2023-07-31T14:06:37;6.00;;;5.50;;
3427;SDS011;1727;42.624;23.406;2023-07-31T14:09:04;6.80;;;6.13;;
3427;SDS011;1727;42.624;23.406;2023-07-31T14:11:32;5.57;;;5.17;;
3427;SDS011;1727;42.624;23.406;2023-07-31T14:13:59;5.97;;;5.50;;
3427;SDS011;1727;42.624;23.406;2023-07-31T14:16:28;9.90;;;5.37;;
3427;SDS011;1727;42.624;23.406;2023-07-31T14:18:54;8.07;;;4.93;;
3427;SDS011;1727;42.624;23.406;2023-07-31T14:21:24;6.67;;;6.07;;
3427;SDS011;1727;42.624;23.406;2023-07-31T14:23:51;6.03;;;5.53;;
3427;SDS011;1727;42.624;23.406;2023-07-31T14:26:18;5.60;;;5.03;;
3427;SDS011;1727;42.624;23.406;2023-07-31T14:28:46;7.03;;;6.00;;
3427;SDS011;1727;42.624;23.406;2023-07-31T14:31:13;5.90;;;5.40;;
3427;SDS011;1727;42.624;23.406;2023-07-31T14:33:39;5.80;;;5.30;;
3427;SDS011;1727;42.624;23.406;2023-07-31T14:36:06;5.33;;;4.93;;
3427;SDS011;1727;42.624;23.406;2023-07-31T14:38:33;7.80;;;5.20;;
3427;SDS011;1727;42.624;23.406;2023-07-31T14:41:00;8.20;;;6.60;;
3427;SDS011;1727;42.624;23.406;2023-07-31T14:43:26;5.60;;;5.10;;
3427;SDS011;1727;42.624;23.406;2023-07-31T14:45:55;5.70;;;5.30;;
3427;SDS011;1727;42.624;23.406;2023-07-31T14:48:24;6.73;;;6.13;;
3427;SDS011;1727;42.624;23.406;2023-07-31T14:50:51;6.50;;;5.90;;
3427;SDS011;1727;42.624;23.406;2023-07-31T14:53:18;6.50;;;5.90;;
3427;SDS011;1727;42.624;23.406;2023-07-31T14:55:44;6.73;;;5.90;;